Time;durP1;ratioP1;P1;durP2;ratioP2;P2;SDS_P1;SDS_P2;PMS_P1;PMS_P2;Temp;Humidity;BMP_temperature;BMP_pressure;BME280_temperature;BME280_humidity;BME280_pressure;Samples;Min_cycle;Max_cycle;Signal;HPM_P1;HPM_P2
2023/06/13 00:01:16;;;;;;;8.55;3.00;;;;;;;17.10;41.57;101081.38;4990926;28;20129;-61
2023/06/13 00:03:47;;;;;;;7.78;3.13;;;;;;;17.11;41.33;101083.88;4991238;28;20046;-61
2023/06/13 00:06:15;;;;;;;10.60;2.80;;;;;;;17.05;41.01;101081.94;4991411;28;20045;-60
2023/06/13 00:08:43;;;;;;;12.70;2.90;;;;;;;17.02;41.25;101074.19;4991673;28;20388;-60
2023/06/13 00:11:09;;;;;;;10.20;3.15;;;;;;;16.94;41.38;101076.22;4990906;28;20544;-59
2023/06/13 00:13:40;;;;;;;7.95;2.70;;;;;;;16.88;42.02;101073.22;4990633;28;20491;-60
2023/06/13 00:16:07;;;;;;;12.40;3.17;;;;;;;16.82;42.40;101078.59;4990519;28;20101;-60
2023/06/13 00:18:33;;;;;;;7.18;2.88;;;;;;;16.65;41.71;101078.00;4991181;28;20049;-60
2023/06/13 00:21:00;;;;;;;10.70;3.15;;;;;;;16.53;41.73;101082.22;4990474;28;20138;-62
2023/06/13 00:23:27;;;;;;;5.68;2.72;;;;;;;16.48;42.00;101077.34;4989135;28;20133;-60
2023/06/13 00:25:53;;;;;;;4.00;2.85;;;;;;;16.46;42.32;101074.00;4990664;28;20081;-60
2023/06/13 00:28:20;;;;;;;14.88;3.13;;;;;;;16.60;42.12;101075.00;4990426;28;20066;-60
2023/06/13 00:30:46;;;;;;;9.00;2.70;;;;;;;16.57;42.13;101068.09;4990400;28;20050;-60
2023/06/13 00:33:17;;;;;;;6.05;2.95;;;;;;;16.55;42.39;101066.63;4991264;28;20042;-60
2023/06/13 00:35:44;;;;;;;9.50;3.10;;;;;;;16.58;42.21;101064.38;4990855;28;20046;-60
2023/06/13 00:38:12;;;;;;;10.68;3.15;;;;;;;16.60;42.05;101064.19;4991267;28;20047;-60
2023/06/13 00:40:39;;;;;;;10.02;2.90;;;;;;;16.53;42.26;101065.97;4990336;28;20047;-60
2023/06/13 00:43:06;;;;;;;8.07;2.72;;;;;;;16.39;42.37;101059.53;4990014;28;20560;-60
2023/06/13 00:45:33;;;;;;;10.68;2.95;;;;;;;16.44;42.95;101070.66;4990256;28;20065;-60
2023/06/13 00:48:06;;;;;;;7.00;2.97;;;;;;;16.36;42.98;101057.22;4990785;28;20057;-61
2023/06/13 00:50:34;;;;;;;12.90;2.72;;;;;;;16.37;43.59;101056.19;4990725;28;20398;-60
2023/06/13 00:53:08;;;;;;;7.25;3.25;;;;;;;16.31;42.78;101051.53;4990048;28;20051;-60
2023/06/13 00:55:36;;;;;;;8.85;3.03;;;;;;;16.17;43.17;101056.78;4990126;28;20052;-60
2023/06/13 00:58:06;;;;;;;4.40;2.70;;;;;;;16.27;43.13;101052.94;4990483;28;20050;-60
2023/06/13 01:00:37;;;;;;;6.10;2.83;;;;;;;16.31;43.61;101054.25;4993432;28;20457;-59
2023/06/13 01:03:09;;;;;;;9.13;2.88;;;;;;;16.18;43.00;101044.91;4993936;28;20061;-60
2023/06/13 01:09:23;;;;;;;6.95;2.90;;;;;;;16.09;43.39;101045.22;4993586;28;20092;-60
2023/06/13 01:12:06;;;;;;;11.95;3.08;;;;;;;16.09;43.51;101042.50;4993764;28;20050;-60
2023/06/13 01:15:04;;;;;;;7.80;3.05;;;;;;;16.07;43.51;101045.41;4993793;28;20070;-60
2023/06/13 01:17:36;;;;;;;8.73;2.80;;;;;;;15.94;44.12;101045.22;4993972;28;20409;-61
2023/06/13 01:20:10;;;;;;;8.25;2.70;;;;;;;15.90;43.79;101044.78;4993509;28;20054;-60
2023/06/13 01:22:45;;;;;;;8.48;3.03;;;;;;;15.96;44.13;101040.47;4993920;28;20042;-60
2023/06/13 01:25:37;;;;;;;8.80;3.22;;;;;;;15.84;44.00;101039.25;4993748;28;20097;-59
2023/06/13 01:28:06;;;;;;;12.38;3.03;;;;;;;15.94;44.12;101040.66;4993338;28;20050;-60
2023/06/13 01:30:38;;;;;;;6.60;3.20;;;;;;;15.98;44.37;101040.28;4994173;28;20046;-60
2023/06/13 01:33:05;;;;;;;9.95;3.10;;;;;;;15.97;44.43;101041.31;4993358;28;20093;-60
2023/06/13 01:35:32;;;;;;;17.52;3.38;;;;;;;16.02;44.03;101041.56;4993063;28;20042;-60
2023/06/13 01:37:58;;;;;;;8.77;2.70;;;;;;;15.95;44.69;101045.06;4993619;28;20051;-62
2023/06/13 01:40:25;;;;;;;8.75;3.38;;;;;;;15.92;44.13;101041.88;4993632;28;20054;-60
2023/06/13 01:42:52;;;;;;;7.75;2.50;;;;;;;15.50;44.71;101040.66;4993576;28;20050;-60
2023/06/13 01:45:19;;;;;;;9.55;2.72;;;;;;;15.58;44.70;101042.41;4992885;28;20042;-60
2023/06/13 01:48:14;;;;;;;10.50;3.03;;;;;;;15.35;45.31;101039.75;4993823;28;20046;-59
2023/06/13 01:50:50;;;;;;;7.03;2.95;;;;;;;15.30;45.41;101044.91;4992967;28;20101;-60
2023/06/13 01:53:36;;;;;;;10.13;2.85;;;;;;;15.35;45.39;101034.34;4992968;28;20112;-61
2023/06/13 01:56:16;;;;;;;7.75;2.50;;;;;;;15.17;46.00;101034.69;4993051;28;20057;-59
2023/06/13 01:58:52;;;;;;;19.00;3.08;;;;;;;15.21;45.99;101039.53;4993760;28;20458;-60
2023/06/13 02:01:20;;;;;;;6.60;2.85;;;;;;;15.41;45.51;101031.75;4992820;28;20038;-60
2023/06/13 02:03:47;;;;;;;13.23;2.60;;;;;;;15.37;45.83;101024.22;4993124;28;20054;-61
2023/06/13 02:06:13;;;;;;;5.97;2.92;;;;;;;15.30;45.72;101023.28;4993591;28;20065;-60
2023/06/13 02:08:40;;;;;;;4.35;2.30;;;;;;;15.19;45.85;101027.25;4992467;28;20038;-59
2023/06/13 02:11:07;;;;;;;9.55;2.50;;;;;;;15.18;46.72;101023.69;4990773;28;20050;-60
2023/06/13 02:13:33;;;;;;;10.30;2.88;;;;;;;15.02;46.35;101031.97;4992376;28;20064;-60
2023/06/13 02:16:00;;;;;;;11.00;3.03;;;;;;;15.06;46.55;101035.16;4991882;28;20050;-61
2023/06/13 02:18:27;;;;;;;8.77;2.72;;;;;;;15.07;47.35;101032.25;4992380;28;20042;-60
2023/06/13 02:20:54;;;;;;;12.40;3.08;;;;;;;15.06;46.45;101035.97;4993307;28;20050;-59
2023/06/13 02:23:21;;;;;;;8.07;2.60;;;;;;;15.02;46.77;101034.66;4993141;28;20046;-60
2023/06/13 02:25:48;;;;;;;10.82;2.90;;;;;;;15.04;46.81;101043.41;4992151;28;20066;-61
2023/06/13 02:28:15;;;;;;;8.20;2.80;;;;;;;15.03;46.89;101028.22;4992472;28;20406;-60
2023/06/13 02:30:41;;;;;;;11.55;3.08;;;;;;;15.07;47.30;101029.53;4992731;28;20104;-62
2023/06/13 02:33:08;;;;;;;8.90;3.17;;;;;;;14.94;47.23;101035.56;4975178;28;20081;-59
2023/06/13 02:35:34;;;;;;;3.58;2.33;;;;;;;15.00;47.52;101036.69;4992617;28;20049;-59
2023/06/13 02:38:01;;;;;;;9.60;2.67;;;;;;;14.93;47.32;101031.19;4991532;28;20054;-62
2023/06/13 02:40:28;;;;;;;9.73;3.00;;;;;;;14.88;47.77;101030.91;4991637;28;20414;-59
2023/06/13 02:42:54;;;;;;;5.95;2.90;;;;;;;14.89;47.34;101037.13;4992154;28;20454;-59
2023/06/13 02:45:21;;;;;;;6.90;2.92;;;;;;;14.88;47.79;101025.50;4992315;28;20050;-59
2023/06/13 02:47:48;;;;;;;9.57;3.05;;;;;;;14.85;47.70;101038.53;4992573;28;20054;-60
2023/06/13 02:50:14;;;;;;;6.10;2.78;;;;;;;14.80;48.16;101030.94;4992719;28;20069;-59
2023/06/13 02:52:41;;;;;;;8.00;2.85;;;;;;;14.75;48.19;101025.25;4992402;28;20050;-61
2023/06/13 02:55:10;;;;;;;9.73;3.13;;;;;;;14.79;48.10;101036.53;4991695;28;20046;-60
2023/06/13 02:57:37;;;;;;;6.75;2.72;;;;;;;14.80;48.38;101027.41;4991201;28;20054;-60
2023/06/13 03:00:11;;;;;;;8.38;2.95;;;;;;;14.79;48.45;101021.16;4991814;28;20146;-60
2023/06/13 03:02:38;;;;;;;9.68;3.00;;;;;;;14.82;48.45;101026.22;4991448;28;20050;-59
2023/06/13 03:05:07;;;;;;;7.18;3.38;;;;;;;14.84;48.44;101026.00;4991755;28;20141;-60
2023/06/13 03:07:34;;;;;;;7.57;3.28;;;;;;;14.80;48.67;101027.41;4991938;28;20096;-59
2023/06/13 03:10:03;;;;;;;8.45;2.95;;;;;;;14.83;48.71;101021.66;4991275;28;20054;-61
2023/06/13 03:12:30;;;;;;;8.15;3.25;;;;;;;14.85;48.67;101011.50;4991692;28;20050;-59
2023/06/13 03:14:57;;;;;;;5.47;3.30;;;;;;;14.84;48.80;101013.34;4991486;28;20054;-61
2023/06/13 03:17:23;;;;;;;7.55;2.80;;;;;;;14.84;48.82;101018.75;4991351;28;20101;-59
2023/06/13 03:19:50;;;;;;;11.27;3.08;;;;;;;14.84;49.73;101017.91;4991853;28;20056;-61
2023/06/13 03:22:29;;;;;;;4.22;2.78;;;;;;;14.89;49.11;101019.06;4991338;28;20129;-60
2023/06/13 03:24:56;;;;;;;8.52;2.75;;;;;;;14.89;49.17;101015.53;4990554;28;20529;-62
2023/06/13 03:27:23;;;;;;;8.07;3.00;;;;;;;14.79;49.31;101014.94;4991222;28;20100;-59
2023/06/13 03:29:49;;;;;;;7.18;3.00;;;;;;;14.92;49.62;101009.75;4991307;28;20438;-60
2023/06/13 03:32:16;;;;;;;10.05;3.13;;;;;;;15.14;49.24;101002.63;4991612;28;20053;-60
2023/06/13 03:34:43;;;;;;;5.75;2.45;;;;;;;15.18;49.04;101012.03;4991815;28;20440;-60
2023/06/13 03:37:09;;;;;;;9.38;2.95;;;;;;;15.12;49.28;101005.53;4991158;28;20101;-59
2023/06/13 03:39:37;;;;;;;7.38;2.55;;;;;;;15.20;49.61;101008.16;4990845;28;20062;-60
2023/06/13 03:42:04;;;;;;;5.85;3.15;;;;;;;15.06;49.41;101011.66;4991203;28;20607;-59
2023/06/13 03:44:31;;;;;;;11.95;3.08;;;;;;;15.04;49.54;101016.41;4990814;28;20046;-59
2023/06/13 03:46:58;;;;;;;6.15;3.08;;;;;;;14.98;49.90;101015.28;4991333;28;20046;-62
2023/06/13 03:49:25;;;;;;;15.60;3.67;;;;;;;14.98;49.83;101015.28;4990088;28;20042;-60
2023/06/13 03:51:52;;;;;;;7.60;2.85;;;;;;;14.93;50.09;101008.72;4990941;28;20057;-60
2023/06/13 03:54:20;;;;;;;7.05;3.33;;;;;;;14.90;50.17;101011.78;4991105;28;20442;-60
2023/06/13 03:56:48;;;;;;;9.63;2.80;;;;;;;14.85;50.46;101000.72;4990960;28;20046;-60
2023/06/13 03:59:15;;;;;;;6.75;3.10;;;;;;;14.95;50.54;101004.84;4991607;28;20120;-60
2023/06/13 04:01:43;;;;;;;7.78;2.78;;;;;;;14.92;50.45;100998.97;4998482;28;20042;-60
2023/06/13 04:04:09;;;;;;;15.98;3.42;;;;;;;14.86;50.65;101002.38;5010296;28;20129;-60
2023/06/13 04:06:37;;;;;;;5.75;3.50;;;;;;;14.83;51.00;100991.94;5010128;28;20478;-59
2023/06/13 04:09:05;;;;;;;6.25;3.38;;;;;;;14.99;50.92;100995.34;5010206;28;20060;-59
2023/06/13 04:11:33;;;;;;;10.88;2.40;;;;;;;14.89;51.47;100994.75;5010630;28;20046;-59
2023/06/13 04:14:01;;;;;;;8.75;3.70;;;;;;;15.07;51.02;100999.81;5009495;28;20129;-62
2023/06/13 04:16:27;;;;;;;7.93;3.05;;;;;;;15.02;50.95;100988.75;5010663;28;20041;-60
2023/06/13 04:18:54;;;;;;;9.57;3.10;;;;;;;15.02;51.07;100991.44;5010510;28;20064;-60
2023/06/13 04:21:24;;;;;;;6.50;3.03;;;;;;;15.06;51.41;100997.31;5010612;28;20100;-59
2023/06/13 04:23:54;;;;;;;6.28;3.33;;;;;;;15.10;51.16;100995.91;5009969;28;20513;-60
2023/06/13 04:26:23;;;;;;;13.07;2.95;;;;;;;15.23;51.17;100990.72;5010280;28;20077;-60
2023/06/13 04:28:50;;;;;;;14.15;2.92;;;;;;;15.27;51.47;100986.63;5009590;28;20054;-60
2023/06/13 04:31:17;;;;;;;12.40;3.58;;;;;;;15.32;51.32;100984.19;5009772;28;20413;-60
2023/06/13 04:33:46;;;;;;;15.68;3.80;;;;;;;15.31;51.59;100992.50;5011100;28;20113;-61
2023/06/13 04:36:13;;;;;;;10.82;3.15;;;;;;;15.50;51.05;100991.97;5004036;28;20450;-62
2023/06/13 04:38:40;;;;;;;6.07;2.83;;;;;;;15.52;51.40;100989.06;4994701;28;20046;-61
2023/06/13 04:41:10;;;;;;;11.52;3.58;;;;;;;15.56;51.30;100993.06;4994303;28;20446;-59
2023/06/13 04:43:38;;;;;;;10.63;3.53;;;;;;;15.39;51.91;101014.03;4994523;28;20055;-60
2023/06/13 04:46:05;;;;;;;13.85;4.47;;;;;;;14.60;53.43;101017.06;4993750;28;20399;-60
2023/06/13 04:48:35;;;;;;;12.07;3.83;;;;;;;14.85;53.46;101004.25;4994055;28;20093;-60
2023/06/13 04:51:03;;;;;;;16.33;4.07;;;;;;;14.62;53.63;101009.63;4993961;28;20051;-62
2023/06/13 04:53:32;;;;;;;16.05;3.38;;;;;;;14.61;54.61;101013.34;4994464;28;20073;-60
2023/06/13 04:55:59;;;;;;;15.80;4.32;;;;;;;14.68;54.91;101019.69;4994322;28;20050;-62
2023/06/13 04:58:26;;;;;;;9.77;3.40;;;;;;;15.15;53.96;101010.53;4994785;28;20081;-60
2023/06/13 05:00:52;;;;;;;13.02;3.17;;;;;;;14.97;54.46;101010.03;4993428;28;20050;-61
2023/06/13 05:03:20;;;;;;;10.93;3.58;;;;;;;14.96;54.06;101016.47;4993335;28;20070;-60
2023/06/13 05:05:47;;;;;;;15.20;3.95;;;;;;;14.87;54.58;101017.56;4994235;28;20503;-65
2023/06/13 05:08:19;;;;;;;12.80;3.97;;;;;;;14.82;55.16;101014.56;4994049;28;20050;-60
2023/06/13 05:10:45;;;;;;;11.30;3.70;;;;;;;14.98;54.50;101006.31;4993830;28;20504;-68
2023/06/13 05:13:12;;;;;;;21.63;4.10;;;;;;;15.04;54.82;101010.16;4993900;28;20108;-69
2023/06/13 05:15:39;;;;;;;15.85;3.17;;;;;;;15.10;55.30;101007.56;4993047;28;20074;-69
2023/06/13 05:18:12;;;;;;;9.07;3.63;;;;;;;15.15;55.50;101007.84;4993263;28;20054;-68
2023/06/13 05:20:41;;;;;;;8.73;4.10;;;;;;;15.48;56.27;100997.53;4993078;28;20061;-68
2023/06/13 05:23:08;;;;;;;20.05;4.05;;;;;;;15.51;53.95;101009.03;4992188;28;20054;-69
2023/06/13 05:25:35;;;;;;;9.60;3.67;;;;;;;15.72;55.32;100995.63;4992590;28;20047;-68
2023/06/13 05:28:02;;;;;;;9.82;4.18;;;;;;;15.92;53.47;100995.91;4992096;28;20108;-67
2023/06/13 05:30:29;;;;;;;7.50;3.13;;;;;;;16.10;53.39;100995.47;4992845;28;20047;-68
2023/06/13 05:32:56;;;;;;;17.33;4.15;;;;;;;16.07;51.65;100994.00;4992872;28;20046;-68
2023/06/13 05:35:23;;;;;;;10.93;3.65;;;;;;;16.19;52.20;100995.19;4992492;28;20125;-68
2023/06/13 05:37:51;;;;;;;7.53;3.00;;;;;;;16.28;52.38;101000.47;4992958;28;20050;-67
2023/06/13 05:40:18;;;;;;;15.95;3.63;;;;;;;16.42;51.65;100995.00;4992658;28;20137;-68
2023/06/13 05:42:44;;;;;;;14.68;3.90;;;;;;;16.46;50.78;100995.47;4992263;28;20046;-67
2023/06/13 05:45:11;;;;;;;9.68;3.70;;;;;;;16.40;50.34;100990.81;4991882;28;20038;-67
2023/06/13 05:47:37;;;;;;;20.33;3.95;;;;;;;16.38;51.10;100982.06;4991650;28;20112;-68
2023/06/13 05:50:05;;;;;;;10.18;3.97;;;;;;;16.53;50.85;100984.72;4991390;28;20457;-66
2023/06/13 05:52:31;;;;;;;10.20;3.70;;;;;;;16.54;50.08;100989.97;4990983;28;20046;-67
2023/06/13 05:54:59;;;;;;;8.68;3.72;;;;;;;16.53;48.78;100988.28;4992289;28;20046;-67
2023/06/13 05:57:43;;;;;;;13.45;4.13;;;;;;;16.35;47.98;100993.25;4990134;28;20050;-66
2023/06/13 06:00:13;;;;;;;16.83;3.72;;;;;;;16.31;48.24;100992.81;4992184;28;20065;-68
2023/06/13 06:02:41;;;;;;;13.85;3.70;;;;;;;15.97;48.13;100993.44;4984763;28;20104;-68
2023/06/13 06:05:08;;;;;;;10.85;3.35;;;;;;;15.92;48.83;101006.72;4987693;28;20053;-67
2023/06/13 06:07:38;;;;;;;9.65;3.78;;;;;;;16.07;48.78;100990.44;4991421;28;20046;-68
2023/06/13 06:10:05;;;;;;;9.07;3.50;;;;;;;16.34;48.39;100997.84;4991608;28;20406;-68
2023/06/13 06:12:32;;;;;;;10.82;4.18;;;;;;;16.40;48.21;100997.09;4991936;28;20046;-67
2023/06/13 06:15:00;;;;;;;15.80;4.05;;;;;;;16.40;48.39;100993.50;4991428;28;20057;-68
2023/06/13 06:17:26;;;;;;;11.90;3.97;;;;;;;16.52;48.60;100996.59;4991605;28;20127;-67
2023/06/13 06:19:53;;;;;;;11.38;4.32;;;;;;;16.27;48.24;100998.81;4991557;28;20074;-69
2023/06/13 06:22:20;;;;;;;11.35;3.97;;;;;;;16.39;48.02;100997.25;4991179;28;20464;-69
2023/06/13 06:24:46;;;;;;;8.10;4.07;;;;;;;16.64;47.68;100989.63;4991622;28;20050;-69
2023/06/13 06:27:13;;;;;;;14.93;3.72;;;;;;;16.52;47.86;100992.00;4991291;28;20050;-67
2023/06/13 06:29:40;;;;;;;10.07;4.07;;;;;;;16.22;48.57;100995.81;4990140;28;20042;-68
2023/06/13 06:32:07;;;;;;;11.55;4.07;;;;;;;16.50;48.11;100993.19;4990847;28;20112;-68
2023/06/13 06:34:34;;;;;;;17.60;4.05;;;;;;;16.70;48.05;100990.72;4991337;28;20050;-68
2023/06/13 06:37:02;;;;;;;8.45;4.22;;;;;;;16.56;47.46;100993.31;4990725;28;20100;-67
2023/06/13 06:39:30;;;;;;;16.92;4.10;;;;;;;16.35;47.75;101004.09;4990668;28;20476;-69
2023/06/13 06:41:56;;;;;;;7.05;3.75;;;;;;;16.39;47.86;100998.09;4991430;28;20117;-69
2023/06/13 06:44:23;;;;;;;19.23;4.13;;;;;;;16.39;46.71;100998.09;4991220;28;20050;-69
2023/06/13 06:47:08;;;;;;;16.10;4.78;;;;;;;16.07;48.22;100999.41;4991231;28;20077;-67
2023/06/13 06:49:35;;;;;;;16.38;3.97;;;;;;;16.05;47.86;100992.50;4990014;28;20042;-71
2023/06/13 06:52:02;;;;;;;12.90;4.55;;;;;;;16.40;48.17;100985.38;4991469;28;20050;-70
2023/06/13 06:54:30;;;;;;;10.27;4.25;;;;;;;16.38;47.94;100992.88;4991093;28;20076;-70
2023/06/13 06:56:56;;;;;;;11.55;4.55;;;;;;;16.24;47.76;100996.47;4990210;28;20058;-69
2023/06/13 06:59:23;;;;;;;10.07;4.47;;;;;;;16.20;48.28;100993.31;4991752;28;20046;-71
2023/06/13 07:01:50;;;;;;;17.10;4.20;;;;;;;16.38;48.48;100999.13;4991173;28;20046;-68
2023/06/13 07:04:17;;;;;;;17.33;4.32;;;;;;;16.40;48.23;101002.50;4991212;28;20064;-71
2023/06/13 07:06:44;;;;;;;14.30;3.53;;;;;;;16.58;48.77;100990.41;4990464;28;20096;-70
2023/06/13 07:09:11;;;;;;;13.80;4.22;;;;;;;16.61;48.06;100982.75;4991308;28;20085;-71
2023/06/13 07:11:38;;;;;;;9.90;3.67;;;;;;;16.94;46.74;100982.19;4973424;28;20050;-71
2023/06/13 07:14:04;;;;;;;18.90;4.13;;;;;;;17.32;45.36;100971.00;4990041;28;20399;-70
2023/06/13 07:16:31;;;;;;;26.90;4.80;;;;;;;17.68;46.01;100969.97;4990155;28;20057;-70
2023/06/13 07:18:57;;;;;;;16.95;3.88;;;;;;;17.91;45.28;100977.81;4991063;28;20049;-70
2023/06/13 07:21:24;;;;;;;13.18;4.30;;;;;;;17.71;45.22;100985.84;4990227;28;20053;-70
2023/06/13 07:23:51;;;;;;;17.13;4.45;;;;;;;17.91;45.07;100978.66;4990650;28;20050;-70
2023/06/13 07:26:33;;;;;;;15.15;4.20;;;;;;;17.98;44.74;100976.78;4989823;28;20050;-69
2023/06/13 07:29:00;;;;;;;13.70;4.47;;;;;;;17.74;43.19;100970.00;4990725;28;20050;-70
2023/06/13 07:31:26;;;;;;;7.97;3.53;;;;;;;17.81;44.71;100978.19;4990552;28;20049;-71
2023/06/13 07:33:54;;;;;;;11.55;3.95;;;;;;;18.00;43.66;100973.88;4990325;28;20135;-70
2023/06/13 07:36:21;;;;;;;13.93;4.05;;;;;;;18.18;41.22;100981.50;4989526;28;20046;-70
2023/06/13 07:38:47;;;;;;;11.73;3.53;;;;;;;18.49;40.85;100984.50;4990183;28;20058;-70
2023/06/13 07:41:14;;;;;;;9.25;3.85;;;;;;;18.69;41.28;100979.09;4990244;28;20113;-70
2023/06/13 07:43:41;;;;;;;14.80;4.05;;;;;;;18.47;40.84;100989.28;4990997;28;20066;-70
2023/06/13 07:46:08;;;;;;;8.73;3.50;;;;;;;18.68;41.57;100982.00;4989981;28;20078;-70
2023/06/13 07:48:38;;;;;;;9.55;3.90;;;;;;;19.12;39.74;100973.25;4989305;28;20410;-71
2023/06/13 07:51:05;;;;;;;15.23;3.60;;;;;;;18.65;39.70;100983.25;4972967;28;20062;-70
2023/06/13 07:53:34;;;;;;;13.73;4.15;;;;;;;18.59;39.54;100977.81;4988593;28;20085;-70
2023/06/13 07:56:04;;;;;;;11.63;3.78;;;;;;;18.64;40.83;100980.75;4989614;28;20046;-70
2023/06/13 07:58:30;;;;;;;12.48;4.28;;;;;;;18.41;40.89;100973.84;4988939;28;20062;-70
2023/06/13 08:00:57;;;;;;;14.15;3.47;;;;;;;18.66;41.62;100984.94;4988907;28;20065;-71
2023/06/13 08:03:24;;;;;;;17.92;4.15;;;;;;;18.72;41.32;100985.97;4989605;28;20046;-70
2023/06/13 08:05:55;;;;;;;16.40;4.32;;;;;;;18.61;41.07;100973.84;4989252;28;20068;-70
2023/06/13 08:08:22;;;;;;;12.55;3.85;;;;;;;18.59;41.05;100973.22;4991061;28;20042;-70
2023/06/13 08:10:49;;;;;;;15.85;4.18;;;;;;;18.63;41.65;100973.66;4993382;28;20056;-70
2023/06/13 08:13:16;;;;;;;23.90;4.68;;;;;;;18.70;41.00;100966.34;4994334;28;20454;-70
2023/06/13 08:15:42;;;;;;;14.93;3.75;;;;;;;19.07;40.84;100967.63;4994526;28;20050;-70
2023/06/13 08:18:10;;;;;;;7.93;3.58;;;;;;;19.32;40.68;100970.50;4992240;28;20062;-69
2023/06/13 08:20:37;;;;;;;14.55;3.58;;;;;;;19.35;39.72;100961.94;4993630;28;20052;-67
2023/06/13 08:23:04;;;;;;;9.77;3.60;;;;;;;19.47;40.00;100960.22;4993698;28;20133;-69
2023/06/13 08:25:31;;;;;;;10.98;4.00;;;;;;;19.77;39.87;100964.34;4993498;28;20046;-70
2023/06/13 08:27:58;;;;;;;14.65;4.03;;;;;;;20.10;39.60;100958.75;4991483;28;20054;-70
2023/06/13 08:30:25;;;;;;;15.45;4.00;;;;;;;20.52;39.46;100967.31;4993696;28;20093;-70
2023/06/13 08:32:52;;;;;;;11.55;3.72;;;;;;;20.86;37.65;100958.66;4993621;28;20050;-68
2023/06/13 08:35:20;;;;;;;13.95;3.63;;;;;;;20.42;37.36;100956.94;4994595;28;20071;-69
2023/06/13 08:37:47;;;;;;;14.68;3.42;;;;;;;20.60;36.97;100964.34;4993979;28;20406;-69
2023/06/13 08:40:15;;;;;;;11.30;3.58;;;;;;;20.58;38.07;100956.38;4993500;28;20134;-70
2023/06/13 08:42:43;;;;;;;15.07;4.00;;;;;;;20.56;37.20;100960.34;4993761;28;20089;-71
2023/06/13 08:45:10;;;;;;;13.02;3.63;;;;;;;20.47;36.28;100969.88;4993699;28;20054;-68
2023/06/13 08:47:38;;;;;;;13.23;3.92;;;;;;;20.02;36.00;100970.72;4993950;28;20471;-69
2023/06/13 08:50:26;;;;;;;9.20;3.80;;;;;;;19.63;36.82;100967.09;4993520;28;20046;-70
2023/06/13 08:52:56;;;;;;;10.13;3.55;;;;;;;19.36;37.49;100977.19;4993499;28;20513;-68
2023/06/13 08:55:25;;;;;;;11.00;3.83;;;;;;;19.16;38.16;100979.94;4993668;28;20093;-70
2023/06/13 08:57:54;;;;;;;10.60;3.42;;;;;;;19.37;38.06;100973.41;4993523;28;20078;-69
2023/06/13 09:00:22;;;;;;;17.65;3.58;;;;;;;19.60;37.21;100980.28;4993272;28;20478;-69
2023/06/13 09:02:50;;;;;;;10.52;3.65;;;;;;;20.30;37.01;100972.25;4993310;28;20076;-69
2023/06/13 09:05:18;;;;;;;5.63;2.78;;;;;;;20.43;34.80;100966.75;4993726;28;20462;-70
2023/06/13 09:07:46;;;;;;;13.63;3.67;;;;;;;20.62;35.25;100973.13;4993771;28;20089;-69
2023/06/13 09:10:14;;;;;;;17.60;3.90;;;;;;;20.78;34.88;100966.28;4993067;28;20055;-68
2023/06/13 09:12:45;;;;;;;10.43;3.72;;;;;;;20.23;35.27;100966.84;4993495;28;20100;-69
2023/06/13 09:15:12;;;;;;;13.30;3.58;;;;;;;20.63;35.83;100974.81;4992768;28;20101;-69
2023/06/13 09:17:39;;;;;;;14.43;3.30;;;;;;;20.76;34.97;100971.13;4992632;28;20046;-68
2023/06/13 09:20:07;;;;;;;14.23;3.50;;;;;;;20.27;35.72;100969.97;5002407;28;20460;-69
2023/06/13 09:22:37;;;;;;;8.07;3.40;;;;;;;19.84;37.22;100966.00;5012058;28;20450;-71
2023/06/13 09:25:08;;;;;;;8.43;3.60;;;;;;;20.49;36.75;100973.19;5012784;28;20046;-71
2023/06/13 09:27:36;;;;;;;12.20;3.45;;;;;;;21.10;36.41;100969.78;5011705;28;20463;-70
2023/06/13 09:30:03;;;;;;;12.38;3.42;;;;;;;21.26;36.41;100968.41;4994266;28;20053;-69
2023/06/13 09:32:30;;;;;;;6.18;2.72;;;;;;;21.62;35.81;100953.94;5011928;28;20046;-71
2023/06/13 09:34:57;;;;;;;10.63;3.30;;;;;;;22.18;35.42;100960.19;5011315;28;20046;-70
2023/06/13 09:37:25;;;;;;;8.50;3.00;;;;;;;22.02;33.59;100953.50;4992107;28;20462;-67
2023/06/13 09:39:55;;;;;;;9.65;3.25;;;;;;;21.33;34.70;100953.63;4992515;28;20046;-69
2023/06/13 09:42:42;;;;;;;10.93;3.00;;;;;;;21.29;32.99;100954.31;4992934;28;20046;-69
2023/06/13 09:45:15;;;;;;;11.30;3.33;;;;;;;21.05;33.26;100956.00;4992050;28;20046;-68
2023/06/13 09:47:42;;;;;;;11.73;3.20;;;;;;;21.21;33.58;100949.13;4992306;28;20502;-69
2023/06/13 09:50:10;;;;;;;12.70;3.03;;;;;;;21.96;31.89;100954.41;4991972;28;20050;-70
2023/06/13 09:52:36;;;;;;;6.13;3.05;;;;;;;21.92;31.19;100958.66;4991983;28;20042;-68
2023/06/13 09:55:03;;;;;;;15.10;2.80;;;;;;;22.25;31.21;100952.72;4991371;28;20069;-65
2023/06/13 09:57:31;;;;;;;7.60;2.55;;;;;;;21.66;30.76;100957.03;4992335;28;20038;-68
2023/06/13 10:00:19;;;;;;;4.30;2.33;;;;;;;21.19;30.35;100960.28;4991975;28;20043;-68
2023/06/13 10:02:46;;;;;;;17.48;2.50;;;;;;;21.49;31.89;100970.47;4992269;28;20047;-69
2023/06/13 10:05:13;;;;;;;9.35;2.85;;;;;;;21.28;31.11;100961.66;4991739;28;20137;-71
2023/06/13 10:07:40;;;;;;;8.45;3.38;;;;;;;21.10;31.69;100958.88;4990883;28;20477;-68
2023/06/13 10:10:08;;;;;;;9.23;2.60;;;;;;;21.09;31.78;100955.31;4991474;28;20096;-69
2023/06/13 10:12:40;;;;;;;12.07;2.85;;;;;;;21.06;32.17;100953.03;4991757;28;20092;-70
2023/06/13 10:15:11;;;;;;;9.05;2.85;;;;;;;20.78;31.52;100960.84;4991336;28;20074;-69
2023/06/13 10:17:42;;;;;;;7.05;3.03;;;;;;;21.00;31.49;100953.09;4990656;28;20437;-69
2023/06/13 10:20:11;;;;;;;13.03;3.00;;;;;;;21.09;30.25;100949.03;4990198;28;20146;-69
2023/06/13 10:22:39;;;;;;;18.25;2.92;;;;;;;21.74;30.69;100949.41;4990812;28;20066;-69
2023/06/13 10:25:07;;;;;;;9.00;3.08;;;;;;;22.48;30.59;100960.22;4990805;28;20042;-67
2023/06/13 10:27:43;;;;;;;11.65;2.75;;;;;;;22.39;30.83;100954.19;4989927;28;20077;-71
2023/06/13 10:30:18;;;;;;;8.20;3.05;;;;;;;21.65;30.98;100942.56;4991139;28;20127;-68
2023/06/13 10:33:21;;;;;;;6.13;2.65;;;;;;;20.99;30.21;100952.25;4990331;28;20062;-68
2023/06/13 10:36:16;;;;;;;8.18;3.10;;;;;;;20.07;32.72;100945.56;4990989;28;20446;-70
2023/06/13 10:39:11;;;;;;;10.93;3.03;;;;;;;19.99;33.54;100940.38;4991103;28;20062;-69
2023/06/13 10:41:59;;;;;;;6.43;2.80;;;;;;;19.81;33.28;100939.19;4991196;28;20093;-69
2023/06/13 10:44:38;;;;;;;14.68;3.25;;;;;;;19.72;33.82;100938.59;4991038;28;20109;-70
2023/06/13 10:47:07;;;;;;;7.72;3.13;;;;;;;19.95;32.10;100935.34;4990688;28;20494;-68
2023/06/13 10:49:38;;;;;;;5.85;2.60;;;;;;;20.33;32.11;100937.22;4990114;28;20081;-68
2023/06/13 10:52:14;;;;;;;;;;;;;;;20.53;31.62;100937.13;4990672;28;20098;-69
2023/06/13 10:54:41;;;;;;;10.45;2.80;;;;;;;20.49;33.08;100937.78;4991171;28;19929;-69
2023/06/13 10:57:08;;;;;;;12.95;3.22;;;;;;;20.27;32.57;100946.28;4990179;28;20046;-71
2023/06/13 10:59:37;;;;;;;14.77;2.88;;;;;;;20.03;33.20;100928.81;4989314;28;20046;-68
2023/06/13 11:02:04;;;;;;;15.52;3.33;;;;;;;19.94;34.23;100939.13;4989426;28;20062;-65
2023/06/13 11:04:32;;;;;;;13.35;2.78;;;;;;;19.54;33.35;100943.88;4971140;28;20458;-66
2023/06/13 11:07:21;;;;;;;15.02;3.33;;;;;;;18.73;33.65;100938.75;4971258;28;20093;-66
2023/06/13 11:10:10;;;;;;;13.43;2.72;;;;;;;19.16;33.40;100951.91;4971006;28;20047;-70
2023/06/13 11:12:37;;;;;;;6.60;2.40;;;;;;;18.94;32.53;100954.88;4969606;28;20042;-67
2023/06/13 11:15:05;;;;;;;11.15;2.58;;;;;;;18.61;32.47;100960.25;4970467;28;20050;-65
2023/06/13 11:17:33;;;;;;;11.10;2.53;;;;;;;18.98;31.70;100953.41;4970923;28;20121;-66
2023/06/13 11:20:00;;;;;;;5.78;2.10;;;;;;;18.88;32.07;100961.09;4970773;28;20127;-66
2023/06/13 11:22:26;;;;;;;12.23;2.17;;;;;;;18.92;34.25;100948.78;4970559;28;20446;-68
2023/06/13 11:25:02;;;;;;;9.77;2.40;;;;;;;19.09;33.58;100948.38;4971296;28;20125;-65
2023/06/13 11:27:28;;;;;;;6.75;2.60;;;;;;;18.70;34.45;100945.44;4970545;28;20153;-68
2023/06/13 11:29:55;;;;;;;15.38;3.33;;;;;;;18.74;34.82;100943.13;4970965;28;20105;-69
2023/06/13 11:32:23;;;;;;;6.15;2.60;;;;;;;19.15;34.79;100933.94;4970546;28;20134;-68
2023/06/13 11:34:55;;;;;;;14.48;2.90;;;;;;;19.02;34.61;100935.59;4971689;28;20062;-70